createdAt,value
2023-01-15T00:01:26.941Z,1021.51
2023-01-15T00:03:56.040Z,1021.65
2023-01-15T00:06:25.974Z,1021.66
2023-01-15T00:08:54.127Z,1021.56
2023-01-15T00:11:21.799Z,1021.53
2023-01-15T00:13:49.027Z,1021.62
2023-01-15T00:16:18.762Z,1021.59
2023-01-15T00:18:50.640Z,1021.56
2023-01-15T00:21:18.359Z,1021.59
2023-01-15T00:23:47.960Z,1021.56
2023-01-15T00:26:19.133Z,1021.57
2023-01-15T00:28:48.535Z,1021.48
2023-01-15T00:31:17.386Z,1021.38
2023-01-15T00:33:44.797Z,1021.39
2023-01-15T00:36:11.952Z,1021.36
2023-01-15T00:38:38.980Z,1021.39
2023-01-15T00:41:07.577Z,1021.43
2023-01-15T00:43:35.010Z,1021.44
2023-01-15T00:46:03.514Z,1021.34
2023-01-15T00:48:31.160Z,1021.20
2023-01-15T00:50:58.486Z,1021.20
2023-01-15T00:53:26.058Z,1021.22
2023-01-15T00:55:55.809Z,1021.25
2023-01-15T00:58:24.903Z,1021.24
2023-01-15T01:00:54.076Z,1021.14
2023-01-15T01:03:21.381Z,1021.03
2023-01-15T01:05:48.901Z,1021.10
2023-01-15T01:08:18.847Z,1021.06
2023-01-15T01:11:01.068Z,1021.07
2023-01-15T01:13:37.769Z,1021.01
2023-01-15T01:16:17.340Z,1020.95
2023-01-15T01:18:50.648Z,1020.82
2023-01-15T01:21:18.700Z,1020.79
2023-01-15T01:23:45.973Z,1020.77
2023-01-15T01:26:16.133Z,1020.70
2023-01-15T01:28:50.993Z,1020.62
2023-01-15T01:31:21.821Z,1020.60
2023-01-15T01:33:50.153Z,1020.67
2023-01-15T01:36:21.313Z,1020.64
2023-01-15T01:38:49.179Z,1020.59
2023-01-15T01:41:16.709Z,1020.50
2023-01-15T01:44:00.469Z,1020.53
2023-01-15T01:46:31.050Z,1020.51
2023-01-15T01:49:02.315Z,1020.50
2023-01-15T01:51:35.668Z,1020.40
2023-01-15T01:54:03.864Z,1020.42
2023-01-15T01:56:37.116Z,1020.35
2023-01-15T01:59:12.139Z,1020.28
2023-01-15T02:01:39.767Z,1020.33
2023-01-15T02:04:09.667Z,1020.23
2023-01-15T02:06:44.994Z,1020.25
2023-01-15T02:09:12.559Z,1020.14
2023-01-15T02:11:45.360Z,1020.11
2023-01-15T02:14:23.592Z,1020.10
2023-01-15T02:16:59.481Z,1019.99
2023-01-15T02:19:42.366Z,1019.96
2023-01-15T02:22:19.855Z,1019.86
2023-01-15T02:24:55.436Z,1019.75
2023-01-15T02:27:28.520Z,1019.61
2023-01-15T02:30:01.687Z,1019.72
2023-01-15T02:32:38.317Z,1019.62
2023-01-15T02:35:11.254Z,1019.59
2023-01-15T02:37:47.274Z,1019.52
2023-01-15T02:40:16.949Z,1019.42
2023-01-15T02:42:48.954Z,1019.35
2023-01-15T02:45:24.735Z,1019.33
2023-01-15T02:47:54.460Z,1019.31
2023-01-15T02:50:30.128Z,1019.37
2023-01-15T02:53:07.302Z,1019.37
2023-01-15T02:55:39.272Z,1019.32
2023-01-15T02:58:12.645Z,1019.17
2023-01-15T03:00:44.828Z,1019.16
2023-01-15T03:03:22.010Z,1018.99
2023-01-15T03:05:54.712Z,1018.95
2023-01-15T03:08:22.213Z,1018.84
2023-01-15T03:11:03.186Z,1018.82
2023-01-15T03:13:42.653Z,1018.84
2023-01-15T03:16:17.354Z,1018.83
2023-01-15T03:18:51.873Z,1018.89
2023-01-15T03:21:26.673Z,1018.92
2023-01-15T03:23:56.243Z,1018.84
2023-01-15T03:26:23.776Z,1018.65
2023-01-15T03:28:53.548Z,1018.59
2023-01-15T03:31:21.168Z,1018.67
2023-01-15T03:33:48.389Z,1018.65
2023-01-15T03:36:18.282Z,1018.58
2023-01-15T03:38:45.935Z,1018.53
2023-01-15T03:41:19.785Z,1018.48
2023-01-15T03:44:00.237Z,1018.39
2023-01-15T03:46:39.022Z,1018.36
2023-01-15T03:49:15.870Z,1018.31
2023-01-15T03:51:52.133Z,1018.32
2023-01-15T03:54:27.277Z,1018.29
2023-01-15T03:57:00.730Z,1018.26
2023-01-15T03:59:35.012Z,1018.31
2023-01-15T04:02:04.372Z,1018.22
2023-01-15T04:04:33.403Z,1018.29
2023-01-15T04:07:02.954Z,1018.25
2023-01-15T04:09:39.493Z,1018.18
2023-01-15T04:12:07.627Z,1018.15
2023-01-15T04:14:39.010Z,1018.29
2023-01-15T04:17:06.382Z,1018.21
2023-01-15T04:19:33.754Z,1018.06
2023-01-15T04:22:00.972Z,1018.02
2023-01-15T04:24:28.058Z,1017.86
2023-01-15T04:26:55.118Z,1017.87
2023-01-15T04:29:22.486Z,1017.82
2023-01-15T04:31:51.648Z,1017.83
2023-01-15T04:34:22.756Z,1017.74
2023-01-15T04:36:52.521Z,1017.78
2023-01-15T04:39:19.616Z,1017.73
2023-01-15T04:41:49.786Z,1017.74
2023-01-15T04:44:17.060Z,1017.63
2023-01-15T04:46:47.475Z,1017.60
2023-01-15T04:49:21.931Z,1017.64
2023-01-15T04:51:55.130Z,1017.55
2023-01-15T04:54:22.310Z,1017.48
2023-01-15T04:56:57.273Z,1017.44
2023-01-15T04:59:26.198Z,1017.30
2023-01-15T05:02:03.766Z,1017.22
2023-01-15T05:04:35.269Z,1017.14
2023-01-15T05:07:05.076Z,1017.10
2023-01-15T05:09:33.134Z,1017.13
2023-01-15T05:12:00.323Z,1017.03
2023-01-15T05:14:29.691Z,1017.02
2023-01-15T05:16:56.814Z,1017.02
2023-01-15T05:19:24.560Z,1017.12
2023-01-15T05:21:53.136Z,1016.96
2023-01-15T05:24:20.244Z,1017.14
2023-01-15T05:26:47.488Z,1017.17
2023-01-15T05:29:19.148Z,1017.18
2023-01-15T05:31:46.637Z,1017.19
2023-01-15T05:34:13.958Z,1017.03
2023-01-15T05:36:41.403Z,1017.01
2023-01-15T05:39:10.095Z,1016.94
2023-01-15T05:41:38.284Z,1016.92
2023-01-15T05:44:08.426Z,1016.99
2023-01-15T05:46:39.618Z,1017.06
2023-01-15T05:49:08.834Z,1017.11
2023-01-15T05:51:36.494Z,1017.27
2023-01-15T05:54:06.261Z,1017.29
2023-01-15T05:56:37.211Z,1017.39
2023-01-15T05:59:05.577Z,1017.48
2023-01-15T06:01:33.591Z,1017.60
2023-01-15T06:04:02.106Z,1017.57
2023-01-15T06:06:30.372Z,1017.55
2023-01-15T06:08:57.825Z,1017.49
2023-01-15T06:11:24.855Z,1017.49
2023-01-15T06:13:53.622Z,1017.27
2023-01-15T06:16:20.881Z,1017.13
2023-01-15T06:18:48.100Z,1017.13
2023-01-15T06:21:15.916Z,1017.06
2023-01-15T06:23:43.936Z,1017.00
2023-01-15T06:26:16.653Z,1016.88
2023-01-15T06:28:44.534Z,1016.74
2023-01-15T06:31:15.587Z,1016.85
2023-01-15T06:33:42.948Z,1016.91
2023-01-15T06:36:12.567Z,1017.02
2023-01-15T06:38:40.945Z,1017.14
2023-01-15T06:41:12.333Z,1017.15
2023-01-15T06:43:39.450Z,1017.09
2023-01-15T06:46:10.051Z,1017.25
2023-01-15T06:48:41.796Z,1017.20
2023-01-15T06:51:09.001Z,1017.43
2023-01-15T06:53:36.359Z,1017.32
2023-01-15T06:56:03.487Z,1017.22
2023-01-15T06:58:32.413Z,1017.15
2023-01-15T07:01:00.441Z,1017.05
2023-01-15T07:03:27.719Z,1017.11
2023-01-15T07:06:08.376Z,1017.09
2023-01-15T07:08:35.947Z,1017.19
2023-01-15T07:11:07.403Z,1017.24
2023-01-15T07:13:35.268Z,1017.27
2023-01-15T07:16:03.934Z,1017.07
2023-01-15T07:18:33.223Z,1017.02
2023-01-15T07:21:01.800Z,1016.94
2023-01-15T07:23:28.925Z,1017.05
2023-01-15T07:25:56.421Z,1016.96
2023-01-15T07:28:24.379Z,1016.90
2023-01-15T07:30:51.701Z,1016.93
2023-01-15T07:33:18.926Z,1016.89
2023-01-15T07:35:46.787Z,1016.89
2023-01-15T07:38:15.446Z,1016.91
2023-01-15T07:40:42.848Z,1016.71
2023-01-15T07:43:10.671Z,1016.70
2023-01-15T07:45:39.608Z,1016.64
2023-01-15T07:48:10.572Z,1016.65
2023-01-15T07:50:37.869Z,1016.53
2023-01-15T07:53:06.409Z,1016.56
2023-01-15T07:55:35.428Z,1016.35
2023-01-15T07:58:03.625Z,1016.32
2023-01-15T08:00:30.441Z,1016.14
2023-01-15T08:02:57.792Z,1016.08
2023-01-15T08:05:25.938Z,1016.02
2023-01-15T08:07:52.784Z,1015.92
2023-01-15T08:10:19.616Z,1015.92
2023-01-15T08:12:50.058Z,1015.91
2023-01-15T08:15:17.033Z,1015.92
2023-01-15T08:17:46.447Z,1015.99
2023-01-15T08:20:15.871Z,1015.80
2023-01-15T08:22:43.544Z,1015.78
2023-01-15T08:25:12.635Z,1015.70
2023-01-15T08:27:40.070Z,1015.70
2023-01-15T08:30:11.583Z,1015.79
2023-01-15T08:32:38.505Z,1015.85
2023-01-15T08:35:06.423Z,1015.77
2023-01-15T08:37:33.251Z,1015.79
2023-01-15T08:40:00.125Z,1015.76
2023-01-15T08:42:27.306Z,1015.78
2023-01-15T08:44:54.397Z,1015.63
2023-01-15T08:47:22.658Z,1015.60
2023-01-15T08:49:49.476Z,1015.51
2023-01-15T08:52:16.935Z,1015.45
2023-01-15T08:54:43.853Z,1015.41
2023-01-15T08:57:10.991Z,1015.37
2023-01-15T08:59:37.830Z,1015.36
2023-01-15T09:02:04.747Z,1015.34
2023-01-15T09:04:33.019Z,1015.45
2023-01-15T09:06:59.790Z,1015.44
2023-01-15T09:09:26.590Z,1015.53
2023-01-15T09:11:53.426Z,1015.57
2023-01-15T09:14:57.719Z,1015.57
2023-01-15T09:17:11.570Z,1015.64
2023-01-15T09:19:39.779Z,1015.66
2023-01-15T09:22:06.608Z,1015.71
2023-01-15T09:24:33.438Z,1015.71
2023-01-15T09:27:00.424Z,1015.59
2023-01-15T09:29:27.446Z,1015.51
2023-01-15T09:31:54.211Z,1015.33
2023-01-15T09:34:21.039Z,1015.18
2023-01-15T09:36:49.218Z,1015.05
2023-01-15T09:39:16.029Z,1014.90
2023-01-15T09:42:05.404Z,1014.89
2023-01-15T09:44:52.487Z,1014.85
2023-01-15T09:47:25.551Z,1014.68
2023-01-15T09:50:06.742Z,1014.68
2023-01-15T09:53:05.685Z,1014.68
2023-01-15T09:55:34.493Z,1014.88
2023-01-15T09:58:04.854Z,1014.78
2023-01-15T10:00:37.687Z,1014.70
2023-01-15T10:03:11.422Z,1014.55
2023-01-15T10:05:44.107Z,1014.52
2023-01-15T10:08:17.635Z,1014.47
2023-01-15T10:10:46.930Z,1014.49
2023-01-15T10:13:21.874Z,1014.43
2023-01-15T10:15:49.070Z,1014.51
2023-01-15T10:18:19.301Z,1014.54
2023-01-15T10:20:57.111Z,1014.54
2023-01-15T10:23:34.348Z,1014.60
2023-01-15T10:26:05.483Z,1014.58
2023-01-15T10:28:52.759Z,1014.34
2023-01-15T10:31:21.347Z,1014.19
2023-01-15T10:34:01.205Z,1014.06
2023-01-15T10:36:34.486Z,1013.83
2023-01-15T10:39:14.284Z,1013.63
2023-01-15T10:41:56.821Z,1013.59
2023-01-15T10:44:34.105Z,1013.47
2023-01-15T10:47:03.142Z,1013.35
2023-01-15T10:49:33.434Z,1013.32
2023-01-15T10:52:07.833Z,1013.43
2023-01-15T10:54:40.274Z,1013.38
2023-01-15T10:57:12.614Z,1013.56
2023-01-15T10:59:45.984Z,1013.49
2023-01-15T11:02:25.130Z,1013.23
2023-01-15T11:04:52.107Z,1013.29
2023-01-15T11:07:20.283Z,1013.13
2023-01-15T11:09:48.483Z,1013.04
2023-01-15T11:12:21.756Z,1012.87
2023-01-15T11:14:48.686Z,1012.92
2023-01-15T11:17:15.595Z,1012.92
2023-01-15T11:19:43.670Z,1012.74
2023-01-15T11:22:12.906Z,1012.73
2023-01-15T11:24:49.032Z,1012.78
2023-01-15T11:27:37.712Z,1012.59
2023-01-15T11:30:27.138Z,1012.54
2023-01-15T11:32:55.950Z,1012.53
2023-01-15T11:35:22.817Z,1012.41
2023-01-15T11:37:49.713Z,1012.46
2023-01-15T11:40:20.093Z,1012.51
2023-01-15T11:42:48.141Z,1012.17
2023-01-15T11:45:18.626Z,1012.39
2023-01-15T11:47:52.320Z,1012.36
2023-01-15T11:50:20.592Z,1012.22
2023-01-15T11:52:52.165Z,1012.25
2023-01-15T11:55:23.890Z,1012.19
2023-01-15T11:57:51.681Z,1012.25
2023-01-15T12:00:23.327Z,1012.23
2023-01-15T12:02:52.824Z,1012.16
2023-01-15T12:05:21.920Z,1012.33
2023-01-15T12:07:50.927Z,1012.23
2023-01-15T12:10:22.258Z,1012.16
2023-01-15T12:13:04.278Z,1012.19
2023-01-15T12:15:43.169Z,1012.24
2023-01-15T12:18:42.199Z,1012.16
2023-01-15T12:21:25.748Z,1012.42
2023-01-15T12:24:07.414Z,1012.46
2023-01-15T12:26:45.284Z,1012.39
2023-01-15T12:29:22.466Z,1012.38
2023-01-15T12:31:54.745Z,1012.34
2023-01-15T12:34:25.845Z,1012.37
2023-01-15T12:36:59.171Z,1012.18
2023-01-15T12:39:32.057Z,1012.12
2023-01-15T12:42:03.994Z,1012.10
2023-01-15T12:44:38.884Z,1011.98
2023-01-15T12:47:11.761Z,1012.02
2023-01-15T12:49:45.841Z,1012.00
2023-01-15T12:52:19.038Z,1011.96
2023-01-15T12:54:51.710Z,1011.92
2023-01-15T12:57:31.073Z,1012.03
2023-01-15T13:00:03.913Z,1011.96
2023-01-15T13:02:40.710Z,1012.05
2023-01-15T13:05:19.067Z,1012.01
2023-01-15T13:07:53.307Z,1012.09
2023-01-15T13:10:24.674Z,1012.16
2023-01-15T13:12:54.443Z,1012.12
2023-01-15T13:15:27.609Z,1012.09
2023-01-15T13:18:03.302Z,1012.14
2023-01-15T13:20:40.981Z,1012.08
2023-01-15T13:23:27.404Z,1012.09
2023-01-15T13:26:04.082Z,1012.21
2023-01-15T13:28:53.800Z,1012.41
2023-01-15T13:31:45.695Z,1012.50
2023-01-15T13:34:19.308Z,1012.55
2023-01-15T13:36:48.171Z,1012.54
2023-01-15T13:39:18.802Z,1012.53
2023-01-15T13:41:48.588Z,1012.65
2023-01-15T13:44:26.273Z,1012.71
2023-01-15T13:47:02.255Z,1012.73
2023-01-15T13:49:33.187Z,1012.73
2023-01-15T13:52:00.279Z,1012.65
2023-01-15T13:54:28.067Z,1012.64
2023-01-15T13:57:06.775Z,1012.66
2023-01-15T13:59:43.424Z,1012.61
2023-01-15T14:02:25.018Z,1012.43
2023-01-15T14:04:52.398Z,1012.46
2023-01-15T14:07:20.385Z,1012.48
2023-01-15T14:09:47.225Z,1012.45
2023-01-15T14:12:28.219Z,1012.33
2023-01-15T14:15:15.821Z,1012.28
2023-01-15T14:18:03.551Z,1012.21
2023-01-15T14:20:52.703Z,1012.12
2023-01-15T14:23:45.099Z,1012.12
2023-01-15T14:26:20.564Z,1012.16
2023-01-15T14:29:01.203Z,1012.09
2023-01-15T14:31:42.491Z,1012.10
2023-01-15T14:34:14.782Z,1012.02
2023-01-15T14:36:50.285Z,1012.04
2023-01-15T14:39:29.080Z,1011.93
2023-01-15T14:42:00.840Z,1011.96
2023-01-15T14:44:31.015Z,1012.05
2023-01-15T14:47:03.513Z,1012.15
2023-01-15T14:49:32.444Z,1012.20
2023-01-15T14:51:59.866Z,1012.22
2023-01-15T14:54:27.021Z,1012.13
2023-01-15T14:56:57.022Z,1012.06
2023-01-15T14:59:28.176Z,1012.13
2023-01-15T15:02:03.619Z,1012.24
2023-01-15T15:04:36.924Z,1012.22
2023-01-15T15:07:07.720Z,1012.26
2023-01-15T15:09:39.039Z,1012.30
2023-01-15T15:12:20.537Z,1012.41
2023-01-15T15:14:53.635Z,1012.29
2023-01-15T15:17:30.976Z,1012.48
2023-01-15T15:20:07.195Z,1012.37
2023-01-15T15:22:38.578Z,1012.39
2023-01-15T15:25:17.397Z,1012.35
2023-01-15T15:27:44.273Z,1012.46
2023-01-15T15:30:12.279Z,1012.42
2023-01-15T15:32:41.350Z,1012.37
2023-01-15T15:35:24.044Z,1012.35
2023-01-15T15:37:52.744Z,1012.39
2023-01-15T15:40:24.060Z,1012.36
2023-01-15T15:42:57.777Z,1012.45
2023-01-15T15:45:28.287Z,1012.52
2023-01-15T15:47:57.490Z,1012.55
2023-01-15T15:50:26.439Z,1012.55
2023-01-15T15:52:53.596Z,1012.66
2023-01-15T15:55:22.827Z,1012.59
2023-01-15T15:57:54.111Z,1012.67
2023-01-15T16:00:27.955Z,1012.74
2023-01-15T16:02:57.151Z,1012.73
2023-01-15T16:05:35.530Z,1012.61
2023-01-15T16:08:16.478Z,1012.52
2023-01-15T16:10:45.065Z,1012.52
2023-01-15T16:13:16.904Z,1012.58
2023-01-15T16:15:44.250Z,1012.61
2023-01-15T16:18:20.255Z,1012.45
2023-01-15T16:20:52.431Z,1012.37
2023-01-15T16:23:24.497Z,1012.34
2023-01-15T16:26:28.041Z,1012.32
2023-01-15T16:29:02.859Z,1012.43
2023-01-15T16:31:34.380Z,1012.45
2023-01-15T16:34:06.417Z,1012.37
2023-01-15T16:36:43.862Z,1012.40
2023-01-15T16:39:23.141Z,1012.44
2023-01-15T16:41:57.110Z,1012.32
2023-01-15T16:44:38.357Z,1012.24
2023-01-15T16:47:06.345Z,1012.36
2023-01-15T16:49:34.627Z,1012.39
2023-01-15T16:52:03.483Z,1012.45
2023-01-15T16:54:44.077Z,1012.42
2023-01-15T16:57:31.528Z,1012.57
2023-01-15T17:00:00.738Z,1012.48
2023-01-15T17:02:34.334Z,1012.50
2023-01-15T17:05:15.407Z,1012.69
2023-01-15T17:07:42.388Z,1012.67
2023-01-15T17:10:20.037Z,1012.52
2023-01-15T17:12:47.111Z,1012.65
2023-01-15T17:15:40.351Z,1012.61
2023-01-15T17:18:21.509Z,1012.53
2023-01-15T17:20:49.805Z,1012.52
2023-01-15T17:23:23.824Z,1012.54
2023-01-15T17:25:51.260Z,1012.50
2023-01-15T17:28:19.052Z,1012.59
2023-01-15T17:30:46.815Z,1012.61
2023-01-15T17:33:13.945Z,1012.56
2023-01-15T17:35:40.742Z,1012.43
2023-01-15T17:38:10.814Z,1012.51
2023-01-15T17:40:37.649Z,1012.51
2023-01-15T17:43:04.655Z,1012.43
2023-01-15T17:45:33.359Z,1012.42
2023-01-15T17:48:00.552Z,1012.48
2023-01-15T17:50:27.363Z,1012.29
2023-01-15T17:52:54.169Z,1012.38
2023-01-15T17:55:23.642Z,1012.24
2023-01-15T17:57:50.408Z,1012.33
2023-01-15T18:00:18.300Z,1012.40
2023-01-15T18:02:45.888Z,1012.43
2023-01-15T18:05:13.427Z,1012.52
2023-01-15T18:07:42.767Z,1012.58
2023-01-15T18:10:13.530Z,1012.61
2023-01-15T18:12:41.689Z,1012.57
2023-01-15T18:15:09.191Z,1012.47
2023-01-15T18:17:36.049Z,1012.50
2023-01-15T18:20:03.353Z,1012.64
2023-01-15T18:22:30.312Z,1012.59
2023-01-15T18:24:58.132Z,1012.52
2023-01-15T18:27:26.386Z,1012.48
2023-01-15T18:29:54.573Z,1012.54
2023-01-15T18:32:21.680Z,1012.44
2023-01-15T18:34:48.556Z,1012.39
2023-01-15T18:37:15.358Z,1012.39
2023-01-15T18:39:42.202Z,1012.53
2023-01-15T18:42:11.398Z,1012.61
2023-01-15T18:44:39.749Z,1012.73
2023-01-15T18:47:12.841Z,1012.67
2023-01-15T18:49:41.419Z,1012.64
2023-01-15T18:52:09.404Z,1012.77
2023-01-15T18:54:36.775Z,1012.81
2023-01-15T18:57:04.869Z,1012.66
2023-01-15T18:59:31.761Z,1012.67
2023-01-15T19:01:58.664Z,1012.67
2023-01-15T19:04:26.897Z,1012.85
2023-01-15T19:06:53.863Z,1012.89
2023-01-15T19:09:21.060Z,1012.79
2023-01-15T19:11:47.877Z,1012.85
2023-01-15T19:14:14.747Z,1012.98
2023-01-15T19:16:41.863Z,1013.04
2023-01-15T19:19:08.700Z,1013.08
2023-01-15T19:21:38.070Z,1013.12
2023-01-15T19:24:06.044Z,1013.17
2023-01-15T19:26:32.886Z,1013.20
2023-01-15T19:28:59.634Z,1013.42
2023-01-15T19:31:26.471Z,1013.53
2023-01-15T19:33:53.587Z,1013.50
2023-01-15T19:36:20.473Z,1013.61
2023-01-15T19:38:50.935Z,1013.68
2023-01-15T19:41:17.884Z,1013.63
2023-01-15T19:43:44.615Z,1013.66
2023-01-15T19:46:11.449Z,1013.75
2023-01-15T19:48:38.277Z,1013.81
2023-01-15T19:51:10.802Z,1013.89
2023-01-15T19:53:37.929Z,1013.98
2023-01-15T19:56:07.008Z,1014.12
2023-01-15T19:58:35.006Z,1014.16
2023-01-15T20:01:02.193Z,1014.15
2023-01-15T20:03:29.336Z,1014.25
2023-01-15T20:05:56.372Z,1014.23
2023-01-15T20:08:23.318Z,1014.26
2023-01-15T20:10:50.807Z,1014.17
2023-01-15T20:13:22.202Z,1014.13
2023-01-15T20:15:49.563Z,1014.20
2023-01-15T20:18:16.900Z,1014.15
2023-01-15T20:20:43.860Z,1014.13
2023-01-15T20:23:11.271Z,1014.16
2023-01-15T20:25:38.656Z,1014.27
2023-01-15T20:28:05.577Z,1014.29
2023-01-15T20:30:33.843Z,1014.21
2023-01-15T20:33:00.745Z,1014.36
2023-01-15T20:35:29.732Z,1014.24
2023-01-15T20:37:57.030Z,1014.22
2023-01-15T20:40:24.508Z,1014.35
2023-01-15T20:42:53.191Z,1014.40
2023-01-15T20:45:20.786Z,1014.36
2023-01-15T20:47:49.065Z,1014.41
2023-01-15T20:50:17.055Z,1014.45
2023-01-15T20:52:46.363Z,1014.48
2023-01-15T20:55:13.641Z,1014.38
2023-01-15T20:57:41.508Z,1014.36
2023-01-15T21:00:13.204Z,1014.45
2023-01-15T21:02:40.044Z,1014.34
2023-01-15T21:05:09.429Z,1014.36
2023-01-15T21:07:55.387Z,1014.36
2023-01-15T21:10:23.105Z,1014.33
2023-01-15T21:12:49.932Z,1014.43
2023-01-15T21:15:17.049Z,1014.44
2023-01-15T21:17:55.402Z,1014.39
2023-01-15T21:20:25.292Z,1014.45
2023-01-15T21:22:52.557Z,1014.30
2023-01-15T21:25:19.395Z,1014.38
2023-01-15T21:27:46.293Z,1014.51
2023-01-15T21:30:14.417Z,1014.50
2023-01-15T21:32:41.262Z,1014.31
2023-01-15T21:35:08.575Z,1014.18
2023-01-15T21:37:37.479Z,1014.19
2023-01-15T21:40:05.804Z,1014.34
2023-01-15T21:42:32.621Z,1014.40
2023-01-15T21:45:00.011Z,1014.37
2023-01-15T21:47:26.985Z,1014.35
2023-01-15T21:49:53.946Z,1014.22
2023-01-15T21:52:21.205Z,1014.25
2023-01-15T21:54:49.365Z,1014.33
2023-01-15T21:57:16.172Z,1014.34
2023-01-15T21:59:42.960Z,1014.39
2023-01-15T22:02:12.731Z,1014.37
2023-01-15T22:04:39.747Z,1014.27
2023-01-15T22:07:06.560Z,1014.37
2023-01-15T22:09:33.377Z,1014.43
2023-01-15T22:12:01.711Z,1014.43
2023-01-15T22:14:30.419Z,1014.35
2023-01-15T22:16:59.656Z,1014.38
2023-01-15T22:19:28.367Z,1014.44
2023-01-15T22:21:58.036Z,1014.39
2023-01-15T22:24:26.157Z,1014.34
2023-01-15T22:26:53.066Z,1014.43
2023-01-15T22:29:21.664Z,1014.44
2023-01-15T22:31:48.436Z,1014.47
2023-01-15T22:34:15.409Z,1014.44
2023-01-15T22:36:43.537Z,1014.57
2023-01-15T22:39:10.400Z,1014.58
2023-01-15T22:41:37.152Z,1014.51
2023-01-15T22:44:04.671Z,1014.45
2023-01-15T22:46:33.528Z,1014.39
2023-01-15T22:49:00.408Z,1014.17
2023-01-15T22:51:27.254Z,1014.14
2023-01-15T22:53:54.868Z,1014.28
2023-01-15T22:56:24.090Z,1014.32
2023-01-15T22:58:53.733Z,1014.26
2023-01-15T23:01:20.984Z,1014.24
2023-01-15T23:03:52.156Z,1014.22
2023-01-15T23:06:18.940Z,1014.25
2023-01-15T23:08:45.733Z,1014.15
2023-01-15T23:11:15.147Z,1014.16
2023-01-15T23:13:42.142Z,1014.05
2023-01-15T23:16:09.827Z,1014.01
2023-01-15T23:18:36.962Z,1014.01
2023-01-15T23:21:06.376Z,1013.90
2023-01-15T23:23:33.264Z,1013.87
2023-01-15T23:26:01.337Z,1013.83
2023-01-15T23:28:28.346Z,1013.78
2023-01-15T23:30:55.114Z,1013.80
2023-01-15T23:33:22.160Z,1013.70
2023-01-15T23:35:49.061Z,1013.64
2023-01-15T23:38:17.844Z,1013.59
2023-01-15T23:40:44.857Z,1013.61
2023-01-15T23:43:13.514Z,1013.67
2023-01-15T23:45:40.319Z,1013.58
2023-01-15T23:48:07.436Z,1013.58
2023-01-15T23:50:34.353Z,1013.55
2023-01-15T23:53:01.249Z,1013.41
2023-01-15T23:55:29.477Z,1013.43
2023-01-15T23:57:56.336Z,1013.54
